Turukhansk, Russia
Current Conditions -  °F | °C
As of 10:00 AM on Saturday 22 Nov 2014 (Local Time) from USNN Reporting Station
Broken Clouds Broken Clouds  
Wind Chill: -22°   Ceiling: 3700
Heat Index: -8°   Visibility: 6mi
Dew Point: -15°   Wind: 7mph
Humidity: 71%   Direction: 260°W
Pressure: 29.83"   Gusts: 13mph
Location:  65.82°N, 87.98°E
Report Text: USNN 220300Z 26003G06MPS 9999 BKN037 M22/M26 Q1010 NOSIG RMKQFE752 2132//54
Loading
Personal Weather Stations






























Interactive Weather Map New forecast layout! Learn more

10-Day Weather Forecast

Advertisements
Track Severe Weather on mobile